Time;durP1;ratioP1;P1;durP2;ratioP2;P2;SDS_P1;SDS_P2;PMS_P1;PMS_P2;Temp;Humidity;BMP_temperature;BMP_pressure;BME280_temperature;BME280_humidity;BME280_pressure;Samples;Min_cycle;Max_cycle;Signal;HPM_P1;HPM_P2
2022/12/17 13:06:37;;;;;;;;;59.50;46.25;;;;;4.00;58.32;101996.59;5000460;28;45390;-69
2022/12/17 13:09:05;;;;;;;;;56.50;42.50;;;;;3.41;57.90;101923.09;4990932;28;45468;-70
2022/12/17 13:11:36;;;;;;;;;59.75;47.50;;;;;4.08;57.67;101998.88;5001957;28;45634;-69
2022/12/17 13:14:14;;;;;;;;;54.50;43.75;;;;;3.14;57.60;101841.06;4981743;28;45336;-70
2022/12/17 13:16:45;;;;;;;;;43.00;32.00;;;;;4.01;57.73;101994.84;4999272;28;45259;-71
2022/12/17 13:19:30;;;;;;;;;55.00;42.25;;;;;3.99;57.56;101994.88;5014638;28;45560;-69
2022/12/17 13:22:08;;;;;;;;;56.25;45.00;;;;;3.87;57.60;101983.16;5017656;28;46533;-72
2022/12/17 13:24:33;;;;;;;;;55.00;45.25;;;;;3.77;57.85;101997.66;5000997;28;46627;-72
2022/12/17 13:26:58;;;;;;;;;61.50;51.25;;;;;3.63;58.35;101984.28;5019110;28;45191;-71
2022/12/17 13:29:36;;;;;;;;;55.75;42.25;;;;;3.60;58.18;101984.41;5019989;28;45362;-71
2022/12/17 13:32:08;;;;;;;;;59.50;46.75;;;;;2.64;58.13;101823.16;4997812;28;48784;-71
2022/12/17 13:35:18;;;;;;;;;64.25;48.25;;;;;3.64;57.88;101992.13;5010284;28;45617;-70
2022/12/17 13:37:43;;;;;;;;;57.25;45.00;;;;;3.53;58.48;101946.19;4977555;28;45556;-68
2022/12/17 13:40:23;;;;;;;;;54.25;43.75;;;;;3.74;57.94;101978.53;4999925;28;45376;-70
2022/12/17 13:42:48;;;;;;;;;65.00;50.25;;;;;3.50;57.82;101998.91;4999065;28;47090;-70
2022/12/17 13:45:22;;;;;;;;;62.50;47.00;;;;;3.31;58.15;101989.19;4981037;28;45424;-71
2022/12/17 13:47:56;;;;;;;;;57.25;45.25;;;;;3.21;58.74;101989.69;4998724;28;45668;-72
2022/12/17 13:50:27;;;;;;;;;62.50;47.50;;;;;3.18;59.07;102002.91;4999012;28;45235;-72
2022/12/17 13:52:53;;;;;;;;;51.75;40.00;;;;;2.81;58.81;101927.47;4998924;28;46187;-69
2022/12/17 13:55:24;;;;;;;;;55.75;43.75;;;;;2.70;58.86;101896.41;4998445;28;45419;-70
2022/12/17 13:57:51;;;;;;;;;51.50;39.50;;;;;3.43;58.47;101986.97;4998184;28;45435;-71
2022/12/17 14:00:29;;;;;;;;;65.75;47.50;;;;;3.52;58.90;101994.44;4998823;28;45430;-72
2022/12/17 14:02:55;;;;;;;;;60.75;47.25;;;;;2.99;58.34;101918.78;4981354;28;46758;-71
2022/12/17 14:08:35;;;;;;;;;63.50;46.00;;;;;3.46;57.67;101989.44;5007900;28;45592;-70
2022/12/17 14:13:47;;;;;;;;;55.67;44.33;;;;;3.43;57.81;101992.22;4998805;28;45330;-71
2022/12/17 14:16:17;;;;;;;;;55.75;44.50;;;;;3.50;58.48;102002.38;4997841;28;45274;-70
2022/12/17 14:18:47;;;;;;;;;51.75;42.25;;;;;3.43;57.71;101974.66;4998759;28;45382;-72
2022/12/17 14:21:13;;;;;;;;;58.75;46.00;;;;;3.55;57.61;101989.88;5002784;28;45404;-72
2022/12/17 14:23:40;;;;;;;;;56.00;44.00;;;;;2.38;57.47;101805.91;4998474;28;45947;-71
2022/12/17 14:26:09;;;;;;;;;54.00;41.25;;;;;3.51;57.72;101990.09;5008750;28;45293;-71
2022/12/17 14:28:47;;;;;;;;;59.00;44.75;;;;;3.47;57.07;102009.56;5018316;28;45239;-70
2022/12/17 14:31:12;;;;;;;;;54.00;41.50;;;;;2.29;58.12;101827.31;5000028;28;45530;-73
2022/12/17 14:33:38;;;;;;;;;60.50;44.50;;;;;3.38;57.79;101979.25;5017626;28;45530;-72
2022/12/17 14:36:10;;;;;;;;;59.50;41.00;;;;;3.63;57.35;102005.34;5018395;28;45546;-71
2022/12/17 14:38:51;;;;;;;;;55.50;40.00;;;;;2.37;57.58;101783.19;5010250;28;45488;-74
2022/12/17 14:44:02;;;;;;;;;51.75;42.25;;;;;3.56;57.07;102001.25;5006276;28;45531;-71
2022/12/17 14:46:29;;;;;;;;;48.50;39.00;;;;;3.41;56.81;101973.03;5007310;28;45514;-67
2022/12/17 14:49:00;;;;;;;;;57.00;41.00;;;;;3.65;56.14;102019.25;5012746;28;45328;-71
2022/12/17 14:51:35;;;;;;;;;60.25;45.25;;;;;3.52;56.75;102012.84;5018617;28;45481;-69
2022/12/17 14:54:20;;;;;;;;;43.25;38.00;;;;;3.34;57.40;102001.34;4983399;28;46424;-70
2022/12/17 14:56:48;;;;;;;;;57.50;42.25;;;;;3.38;57.76;102015.19;5003260;28;45531;-70
2022/12/17 14:59:37;;;;;;;;;53.25;39.75;;;;;3.37;57.02;101993.31;4999368;28;45309;-71
2022/12/17 15:02:09;;;;;;;;;54.75;43.75;;;;;3.42;56.48;101993.16;5016232;28;45368;-70
2022/12/17 15:04:37;;;;;;;;;48.75;39.75;;;;;2.18;56.70;101787.53;5012739;28;45703;-71
2022/12/17 15:07:04;;;;;;;;;49.00;39.00;;;;;2.89;56.50;101943.75;5006184;28;45408;-71
2022/12/17 15:09:35;;;;;;;;;52.75;42.25;;;;;3.19;56.86;101989.72;5019230;28;45342;-70
2022/12/17 15:12:00;;;;;;;;;49.00;36.75;;;;;2.19;57.23;101839.06;5018583;28;45380;-71
2022/12/17 15:14:26;;;;;;;;;41.67;36.00;;;;;1.83;57.30;101787.25;5000317;28;50246;-70
2022/12/17 15:16:51;;;;;;;;;46.67;38.33;;;;;2.14;57.38;101823.53;5013512;28;45159;-72
2022/12/17 15:19:17;;;;;;;;;49.00;38.75;;;;;3.21;57.22;102011.56;5007543;28;45340;-71
2022/12/17 15:21:43;;;;;;;;;56.75;42.75;;;;;3.14;56.63;101982.97;4985985;28;45689;-71
2022/12/17 15:24:17;;;;;;;;;45.75;39.25;;;;;3.02;56.61;101981.72;4997465;28;46126;-70
2022/12/17 15:26:43;;;;;;;;;33.33;27.33;;;;;2.87;56.59;101966.59;4979443;28;45319;-71
2022/12/17 15:29:08;;;;;;;;;42.75;35.75;;;;;2.94;56.41;101973.31;5001759;28;45435;-68
2022/12/17 15:31:34;;;;;;;;;43.00;37.00;;;;;2.80;56.74;101959.88;4997281;28;45603;-70
2022/12/17 15:33:59;;;;;;;;;40.00;35.00;;;;;2.24;56.71;101887.00;4981729;28;45442;-72
2022/12/17 15:36:25;;;;;;;;;42.50;35.75;;;;;2.37;56.97;101935.41;4995998;28;45497;-74
2022/12/17 15:38:50;;;;;;;;;42.50;34.50;;;;;2.58;57.02;101980.94;4999751;28;45512;-71
2022/12/17 15:44:00;;;;;;;;;49.25;35.50;;;;;1.65;57.72;101877.09;5015204;28;45787;-72
2022/12/17 15:46:25;;;;;;;;;39.75;34.50;;;;;1.22;57.50;101836.81;5004066;28;45473;-72
2022/12/17 15:48:51;;;;;;;;;49.75;37.00;;;;;2.47;58.07;102017.28;4982691;28;45327;-70
2022/12/17 15:51:18;;;;;;;;;50.50;41.75;;;;;2.52;59.01;102008.28;4979082;28;45634;-71
2022/12/17 15:53:43;;;;;;;;;47.50;40.25;;;;;2.53;58.53;102006.53;4999565;28;46203;-71
2022/12/17 15:56:19;;;;;;;;;47.25;38.50;;;;;2.48;58.57;102017.22;4999718;28;44862;-73
2022/12/17 15:58:44;;;;;;;;;53.25;40.75;;;;;2.52;58.01;102015.31;5005789;28;45450;-71
2022/12/17 16:01:09;;;;;;;;;49.50;40.00;;;;;1.82;58.56;101911.41;4979685;28;45310;-71
2022/12/17 16:03:35;;;;;;;;;47.00;40.25;;;;;2.45;58.33;101996.34;5006539;28;46556;-70
2022/12/17 16:06:00;;;;;;;;;56.50;40.00;;;;;1.17;59.06;101820.41;5000647;28;46029;-69
2022/12/17 16:08:26;;;;;;;;;54.25;40.25;;;;;2.24;58.86;102026.06;5003718;28;45504;-68
2022/12/17 16:10:51;;;;;;;;;56.25;39.25;;;;;2.36;58.64;102038.69;4997335;28;45440;-70
2022/12/17 16:13:17;;;;;;;;;48.75;38.25;;;;;2.11;59.25;101981.91;4979124;28;45359;-69
2022/12/17 16:15:42;;;;;;;;;38.50;34.75;;;;;1.78;58.63;101921.13;5002271;28;45251;-68
2022/12/17 16:18:08;;;;;;;;;45.75;33.00;;;;;2.14;58.55;102029.00;5015591;28;45267;-71
2022/12/17 16:20:33;;;;;;;;;45.50;38.25;;;;;1.93;58.82;101977.38;4981167;28;45311;-71
2022/12/17 16:23:00;;;;;;;;;51.50;42.25;;;;;2.25;59.00;102035.63;5009869;28;45868;-70
2022/12/17 16:25:25;;;;;;;;;38.00;32.25;;;;;2.31;58.58;102033.63;5001503;28;45451;-70
2022/12/17 16:27:51;;;;;;;;;34.67;30.00;;;;;1.66;58.78;101933.84;5018011;28;45325;-71
2022/12/17 16:30:17;;;;;;;;;40.50;34.25;;;;;0.86;58.44;101808.47;5001249;28;45532;-73
2022/12/17 16:32:42;;;;;;;;;38.33;32.67;;;;;2.18;57.95;102029.75;5011654;28;45557;-71
2022/12/17 16:35:08;;;;;;;;;45.25;36.75;;;;;1.32;58.01;101874.84;4988434;28;46447;-71
2022/12/17 16:37:34;;;;;;;;;51.75;39.25;;;;;1.54;58.21;101890.59;5021857;28;45486;-72
2022/12/17 16:39:59;;;;;;;;;41.00;37.25;;;;;2.28;58.68;102035.50;5005991;28;45439;-75
2022/12/17 16:42:25;;;;;;;;;45.00;39.00;;;;;2.27;58.52;102020.69;5000293;28;45271;-70
2022/12/17 16:44:51;;;;;;;;;48.75;38.50;;;;;2.31;58.94;102035.38;4982605;28;45998;-73
2022/12/17 16:47:17;;;;;;;;;52.50;41.25;;;;;2.08;58.71;102037.13;5004490;28;45515;-69
2022/12/17 16:49:42;;;;;;;;;52.75;43.75;;;;;1.93;59.12;102032.44;5001613;28;45262;-72
2022/12/17 16:52:08;;;;;;;;;54.75;41.00;;;;;1.23;59.63;101930.22;4997229;28;46784;-70
2022/12/17 16:54:34;;;;;;;;;49.00;39.75;;;;;1.85;59.18;102018.78;4990685;28;45724;-75
2022/12/17 16:57:01;;;;;;;;;38.33;35.33;;;;;1.87;59.11;102016.94;4982419;28;45275;-76
2022/12/17 16:59:27;;;;;;;;;50.00;37.33;;;;;1.91;58.87;102009.81;5018145;28;45452;-73
2022/12/17 17:01:53;;;;;;;;;34.75;27.50;;;;;1.62;58.69;101971.59;5008018;28;47087;-72
2022/12/17 17:04:21;;;;;;;;;40.00;33.67;;;;;0.56;58.82;101779.00;5009285;28;45463;-73
2022/12/17 17:06:52;;;;;;;;;40.50;30.75;;;;;1.94;59.41;102023.66;5019435;28;45513;-72
2022/12/17 17:09:19;;;;;;;;;42.67;37.33;;;;;0.59;58.57;101804.19;5017772;28;45310;-70
2022/12/17 17:11:45;;;;;;;;;43.00;37.50;;;;;1.76;59.06;102017.34;5004335;28;45578;-71
2022/12/17 17:14:11;;;;;;;;;46.00;35.00;;;;;1.10;58.58;101885.25;5011002;28;45491;-72
2022/12/17 17:16:37;;;;;;;;;42.67;39.33;;;;;1.91;58.38;102018.53;5013158;28;45452;-73
2022/12/17 17:19:04;;;;;;;;;43.25;38.25;;;;;1.96;58.77;102013.97;5007398;28;45483;-71
2022/12/17 17:21:33;;;;;;;;;56.50;41.00;;;;;0.86;59.17;101839.88;5014050;28;46573;-72
2022/12/17 17:24:01;;;;;;;;;43.25;37.00;;;;;1.72;59.77;102028.00;5017630;28;45567;-70
2022/12/17 17:26:28;;;;;;;;;62.25;41.50;;;;;1.85;60.11;102045.00;5003460;28;45493;-71
2022/12/17 17:28:54;;;;;;;;;42.75;38.00;;;;;1.46;59.30;101953.81;4990508;28;45468;-75
2022/12/17 17:31:21;;;;;;;;;48.75;38.50;;;;;1.29;59.64;101969.28;5000477;28;47434;-72
2022/12/17 17:33:48;;;;;;;;;58.25;42.00;;;;;1.57;59.83;101976.13;5013767;28;46053;-70
2022/12/17 17:36:18;;;;;;;;;53.25;43.75;;;;;1.84;59.69;102024.94;5018397;28;45520;-71
2022/12/17 17:38:44;;;;;;;;;52.50;43.75;;;;;1.80;60.17;102039.94;5018083;28;45287;-73
2022/12/17 17:41:12;;;;;;;;;52.50;42.00;;;;;1.57;60.26;102020.69;5017767;28;45563;-69
2022/12/17 17:43:38;;;;;;;;;59.25;43.50;;;;;0.71;60.25;101858.72;5009001;28;45515;-69
2022/12/17 17:46:05;;;;;;;;;47.50;40.25;;;;;1.07;60.28;101934.28;4992424;28;45350;-72
2022/12/17 17:48:32;;;;;;;;;48.25;40.00;;;;;1.79;60.18;102055.69;5014603;28;45508;-68
2022/12/17 17:51:11;;;;;;;;;40.50;31.75;;;;;1.28;60.00;101957.09;5013916;28;45710;-70
2022/12/17 17:53:37;;;;;;;;;47.00;38.00;;;;;1.80;60.37;102054.78;5015244;28;46251;-70
2022/12/17 17:56:13;;;;;;;;;50.50;40.25;;;;;1.73;60.35;102054.16;5006758;28;45603;-70
2022/12/17 17:58:44;;;;;;;;;40.50;38.00;;;;;1.71;60.34;102044.63;5010002;28;45332;-69
2022/12/17 18:01:11;;;;;;;;;53.00;43.25;;;;;1.57;61.15;102039.88;5007822;28;45711;-71
2022/12/17 18:03:37;;;;;;;;;59.25;45.00;;;;;1.12;60.82;101950.69;5013606;28;45474;-74
2022/12/17 18:06:06;;;;;;;;;60.00;49.00;;;;;0.67;61.10;101888.53;5012498;28;45486;-73
2022/12/17 18:08:32;;;;;;;;;56.25;43.50;;;;;0.47;61.37;101867.44;5015834;28;45373;-71
2022/12/17 18:10:59;;;;;;;;;49.75;42.50;;;;;0.53;61.05;101868.06;5000019;28;45231;-71
2022/12/17 18:16:08;;;;;;;;;51.25;42.00;;;;;0.36;61.91;101839.00;5001503;28;45262;-70
2022/12/17 18:18:34;;;;;;;;;54.50;45.75;;;;;0.35;62.05;101829.44;4990174;28;45755;-73
2022/12/17 18:21:09;;;;;;;;;66.25;49.75;;;;;1.21;61.43;101972.19;5017452;28;46582;-72
2022/12/17 18:23:35;;;;;;;;;58.75;47.75;;;;;0.87;61.45;101925.34;5003368;28;45452;-70
2022/12/17 18:26:08;;;;;;;;;59.25;45.75;;;;;1.55;61.78;102022.50;5018135;28;45397;-71
2022/12/17 18:28:34;;;;;;;;;61.75;48.00;;;;;0.79;61.70;101909.03;5009897;28;45532;-69
2022/12/17 18:31:19;;;;;;;;;55.50;45.75;;;;;1.51;62.52;102027.88;4989962;28;48002;-72
2022/12/17 18:33:48;;;;;;;;;48.75;42.25;;;;;1.28;62.02;101993.75;5013503;28;45499;-71
2022/12/17 18:36:25;;;;;;;;;57.25;47.00;;;;;1.40;62.65;102019.53;5006832;28;45436;-67
2022/12/17 18:38:58;;;;;;;;;61.50;49.00;;;;;1.35;63.10;102031.94;5004272;28;45278;-68
2022/12/17 18:44:09;;;;;;;;;62.00;47.00;;;;;0.52;62.54;101928.31;5016110;28;45402;-71
2022/12/17 18:46:34;;;;;;;;;56.00;46.25;;;;;1.26;63.28;102055.84;5016644;28;45388;-69
2022/12/17 18:49:02;;;;;;;;;57.75;45.50;;;;;1.26;63.46;102045.34;5005350;28;45527;-71
2022/12/17 18:51:28;;;;;;;;;63.50;49.00;;;;;0.46;63.36;101907.59;4997849;28;47953;-70
2022/12/17 18:53:59;;;;;;;;;69.00;51.25;;;;;1.14;63.39;102053.63;5017666;28;45174;-69
2022/12/17 18:56:26;;;;;;;;;62.25;47.50;;;;;1.27;62.78;102054.94;5009607;28;45242;-75
2022/12/17 18:58:53;;;;;;;;;63.25;50.50;;;;;1.17;63.35;102079.72;5007228;28;45368;-72
2022/12/17 19:01:27;;;;;;;;;66.25;46.25;;;;;0.99;63.90;102070.69;4997938;28;46389;-70
2022/12/17 19:03:53;;;;;;;;;64.00;50.25;;;;;1.04;63.11;102057.47;4999117;28;45480;-70
2022/12/17 19:06:20;;;;;;;;;66.25;47.75;;;;;0.50;63.59;101961.50;4986078;28;45456;-73
2022/12/17 19:08:47;;;;;;;;;70.50;55.00;;;;;1.04;63.99;102047.00;5003104;28;45318;-73
2022/12/17 19:11:13;;;;;;;;;62.75;51.00;;;;;1.15;62.68;102066.66;4997484;28;46331;-71
2022/12/17 19:13:39;;;;;;;;;58.00;45.25;;;;;1.01;62.64;102023.53;5006442;28;45308;-73
2022/12/17 19:16:10;;;;;;;;;64.00;48.25;;;;;0.99;62.72;102020.09;4995473;28;45460;-72
2022/12/17 19:18:37;;;;;;;;;64.00;50.75;;;;;0.49;61.96;101915.31;5015028;28;45278;-71
2022/12/17 19:21:03;;;;;;;;;64.25;49.25;;;;;1.11;62.05;102022.31;5004868;28;45844;-72
2022/12/17 19:23:29;;;;;;;;;61.50;49.25;;;;;0.73;61.85;102000.88;5002184;28;45462;-73
2022/12/17 19:25:55;;;;;;;;;67.00;51.00;;;;;0.38;61.96;101935.75;5013628;28;45425;-71
2022/12/17 19:28:21;;;;;;;;;61.75;45.50;;;;;1.13;62.20;102058.00;5010346;28;45412;-72
2022/12/17 19:30:46;;;;;;;;;57.50;45.25;;;;;1.00;62.02;102080.28;4997046;28;48266;-72
2022/12/17 19:33:12;;;;;;;;;64.00;51.25;;;;;1.01;61.84;102073.28;4980929;28;46288;-74
2022/12/17 19:35:37;;;;;;;;;61.25;48.75;;;;;0.66;62.57;102020.31;4999775;28;45547;-71
2022/12/17 19:38:02;;;;;;;;;62.50;47.75;;;;;0.74;62.42;102033.13;4980144;28;45608;-75
2022/12/17 19:40:28;;;;;;;;;62.50;48.75;;;;;0.49;61.96;102007.75;4997591;28;45262;-71
2022/12/17 19:42:56;;;;;;;;;61.50;46.75;;;;;0.78;62.06;102059.16;5003398;28;55837;-70
2022/12/17 19:45:22;;;;;;;;;70.00;51.50;;;;;0.35;62.23;101999.47;5016027;28;45226;-72
2022/12/17 19:47:47;;;;;;;;;67.00;49.25;;;;;0.59;62.31;102030.09;5010315;28;45617;-71
2022/12/17 19:50:13;;;;;;;;;82.00;60.75;;;;;0.87;62.29;102056.25;5004290;28;45503;-68
2022/12/17 19:52:39;;;;;;;;;65.75;49.00;;;;;0.36;62.38;101968.94;5020515;28;45606;-77
2022/12/17 19:55:05;;;;;;;;;68.50;54.75;;;;;0.91;62.35;102073.56;5021588;28;45234;-74
2022/12/17 19:57:33;;;;;;;;;76.75;58.50;;;;;0.94;62.47;102087.47;5014435;28;45344;-73
2022/12/17 19:59:58;;;;;;;;;63.50;50.00;;;;;0.75;62.08;102040.94;5002130;28;46333;-69
2022/12/17 20:02:23;;;;;;;;;71.00;55.25;;;;;0.23;62.29;101961.50;5000442;28;45584;-71
2022/12/17 20:04:49;;;;;;;;;61.50;49.00;;;;;0.23;62.20;101974.59;5007229;28;45400;-74
2022/12/17 20:07:15;;;;;;;;;68.00;50.50;;;;;0.85;62.23;102067.69;5017911;28;45349;-72
2022/12/17 20:09:42;;;;;;;;;69.25;49.00;;;;;0.82;62.09;102052.94;5015774;28;45606;-69
2022/12/17 20:12:08;;;;;;;;;64.75;50.00;;;;;-0.70;62.27;101823.25;5016027;28;45492;-68
2022/12/17 20:14:34;;;;;;;;;69.00;49.75;;;;;0.29;62.50;102026.69;4997406;28;45436;-71
2022/12/17 20:17:00;;;;;;;;;61.00;50.00;;;;;-0.34;62.29;101954.53;4999477;28;45409;-70
2022/12/17 20:19:32;;;;;;;;;70.50;52.75;;;;;0.65;62.84;102089.25;5012332;28;46489;-71
2022/12/17 20:21:58;;;;;;;;;71.00;55.25;;;;;0.69;61.88;102076.94;5015933;28;45261;-71
2022/12/17 20:24:24;;;;;;;;;66.75;55.50;;;;;0.37;62.52;102060.44;4999261;28;45905;-77
2022/12/17 20:26:52;;;;;;;;;66.50;52.50;;;;;0.63;62.98;102098.91;4993731;28;45465;-73
2022/12/17 20:29:22;;;;;;;;;63.00;50.00;;;;;0.70;62.62;102113.53;5008710;28;46467;-80
2022/12/17 20:31:49;;;;;;;;;62.25;49.25;;;;;0.79;62.48;102114.97;4994121;28;45922;-74
2022/12/17 20:34:16;;;;;;;;;70.25;55.75;;;;;0.73;62.19;102082.00;4996703;28;45495;-72
2022/12/17 20:36:42;;;;;;;;;65.00;50.75;;;;;0.98;62.03;102110.03;5011939;28;45618;-71
2022/12/17 20:39:08;;;;;;;;;68.50;51.75;;;;;-0.20;61.23;101900.97;5011867;28;45620;-79
2022/12/17 20:41:35;;;;;;;;;58.25;46.75;;;;;0.20;62.21;101995.59;4996710;28;46410;-72
2022/12/17 20:44:09;;;;;;;;;68.75;53.50;;;;;0.84;61.97;102111.34;5010860;28;45534;-73
2022/12/17 20:46:35;;;;;;;;;67.75;49.25;;;;;0.47;61.77;102035.72;5013385;28;46067;-70
2022/12/17 20:49:02;;;;;;;;;63.00;47.75;;;;;0.83;62.08;102116.63;4997811;28;46899;-72
2022/12/17 20:51:29;;;;;;;;;63.00;50.00;;;;;0.93;61.88;102104.09;4991106;28;45329;-71
2022/12/17 20:53:57;;;;;;;;;61.75;50.25;;;;;0.92;61.31;102100.59;5012389;28;45540;-72
2022/12/17 20:56:32;;;;;;;;;70.50;51.00;;;;;0.63;61.17;102074.50;5016200;28;45524;-69
2022/12/17 20:59:01;;;;;;;;;64.00;47.75;;;;;0.67;61.36;102126.72;5011920;28;46523;-77
2022/12/17 21:01:28;;;;;;;;;67.25;51.75;;;;;0.50;61.68;102067.03;5016722;28;45242;-78
2022/12/17 21:03:55;;;;;;;;;67.50;51.75;;;;;0.36;61.45;102079.66;4997823;28;45570;-80
2022/12/17 21:06:24;;;;;;;;;71.00;53.00;;;;;0.63;62.13;102124.25;5005426;28;45554;-82
2022/12/17 21:08:51;;;;;;;;;68.50;53.75;;;;;0.49;61.75;102104.56;4994926;28;45890;-70
2022/12/17 21:11:18;;;;;;;;;66.25;52.00;;;;;-0.63;62.20;101921.38;5014575;28;47007;-71
2022/12/17 21:13:44;;;;;;;;;71.25;52.25;;;;;-1.39;62.72;101820.91;5022140;28;45285;-72
2022/12/17 21:16:15;;;;;;;;;65.75;48.50;;;;;-0.75;62.24;101940.03;5008194;28;45527;-70
2022/12/17 21:18:41;;;;;;;;;54.00;43.50;;;;;-1.63;62.58;101778.06;5019002;28;46745;-73
2022/12/17 21:21:12;;;;;;;;;58.25;44.50;;;;;0.02;62.72;102056.28;5018674;28;45353;-76
2022/12/17 21:23:39;;;;;;;;;63.50;52.25;;;;;0.34;62.13;102117.25;5014800;28;45340;-73
2022/12/17 21:26:20;;;;;;;;;62.75;52.00;;;;;0.19;63.04;102113.31;5018268;28;45531;-75
2022/12/17 21:28:48;;;;;;;;;62.25;48.50;;;;;-0.20;62.82;102066.50;4999705;28;45838;-80
2022/12/17 21:31:15;;;;;;;;;67.25;53.50;;;;;-0.87;62.94;101931.66;5017989;28;45210;-77
2022/12/17 21:33:40;;;;;;;;;69.25;52.50;;;;;0.36;63.04;102100.59;5019400;28;45470;-74
2022/12/17 21:36:06;;;;;;;;;58.00;43.00;;;;;0.24;62.28;102107.06;5000222;28;46171;-76
2022/12/17 21:38:31;;;;;;;;;68.25;53.25;;;;;0.16;62.50;102042.78;5017351;28;45739;-77
2022/12/17 21:41:07;;;;;;;;;64.25;51.75;;;;;0.27;61.98;102064.25;5003652;28;45258;-80
2022/12/17 21:43:33;;;;;;;;;64.50;50.00;;;;;0.39;61.62;102094.41;5006589;28;45291;-74
2022/12/17 21:45:58;;;;;;;;;69.00;53.25;;;;;0.41;62.29;102100.47;5014388;28;45667;-78
2022/12/17 21:48:24;;;;;;;;;67.50;52.75;;;;;-0.27;62.56;101986.53;5016957;28;45878;-77
2022/12/17 21:50:49;;;;;;;;;64.50;51.50;;;;;0.01;62.89;102038.91;4993045;28;45776;-75
2022/12/17 21:53:15;;;;;;;;;69.50;50.50;;;;;0.21;62.74;102104.53;5016617;28;45448;-80
2022/12/17 21:55:40;;;;;;;;;73.00;52.25;;;;;-0.13;63.37;102044.50;5020485;28;45483;-76
2022/12/17 21:58:07;;;;;;;;;65.75;50.75;;;;;0.11;62.84;102076.94;5001160;28;46624;-76
2022/12/17 22:00:33;;;;;;;;;67.00;51.00;;;;;0.08;62.79;102082.25;4981716;28;46158;-75
2022/12/17 22:02:58;;;;;;;;;70.00;51.50;;;;;0.17;63.14;102074.13;5011267;28;45341;-75
2022/12/17 22:05:24;;;;;;;;;65.50;50.75;;;;;-0.13;63.13;102043.66;5006395;28;45522;-76
2022/12/17 22:07:49;;;;;;;;;65.25;50.25;;;;;-0.47;63.61;101971.44;5005634;28;45551;-75
2022/12/17 22:10:15;;;;;;;;;65.75;52.00;;;;;-0.34;63.08;101993.72;5014937;28;46437;-76
2022/12/17 22:15:24;;;;;;;;;72.00;55.00;;;;;-0.43;63.26;101999.19;5000944;28;44905;-74
2022/12/17 22:17:52;;;;;;;;;65.50;48.75;;;;;-0.38;63.22;102007.78;5012102;28;45724;-75
2022/12/17 22:20:17;;;;;;;;;66.00;50.00;;;;;-0.63;63.95;101989.28;4995602;28;45936;-74
2022/12/17 22:22:44;;;;;;;;;67.25;49.00;;;;;-1.08;63.23;101888.75;5018256;28;46047;-74
2022/12/17 22:25:11;;;;;;;;;63.50;47.00;;;;;-0.08;63.23;102073.13;5021685;28;45525;-75
2022/12/17 22:27:37;;;;;;;;;70.25;51.50;;;;;-1.76;63.51;101785.38;5000764;28;47864;-74
2022/12/17 22:33:04;;;;;;;;;66.75;52.75;;;;;-0.29;62.75;102032.78;5019041;28;45257;-77
2022/12/17 22:35:38;;;;;;;;;66.75;48.75;;;;;-0.42;62.94;102040.09;5000621;28;45583;-75
2022/12/17 22:38:05;;;;;;;;;64.75;50.50;;;;;-0.90;63.74;101960.47;5015410;28;45699;-75
2022/12/17 22:40:35;;;;;;;;;65.25;52.25;;;;;-1.01;64.40;101969.44;5010737;28;45506;-76
2022/12/17 22:45:44;;;;;;;;;66.00;52.75;;;;;-0.96;64.65;101993.69;4999165;28;45467;-76
2022/12/17 22:48:11;;;;;;;;;68.75;47.00;;;;;-0.59;64.44;102023.19;4998732;28;46788;-76
2022/12/17 22:50:37;;;;;;;;;62.00;48.75;;;;;-0.33;64.60;102052.06;5017271;28;45236;-73
2022/12/17 22:53:03;;;;;;;;;62.25;48.00;;;;;-2.45;64.15;101711.53;5007302;28;45539;-76
2022/12/17 22:55:29;;;;;;;;;61.75;47.00;;;;;-0.64;64.51;102011.09;5011342;28;45375;-75
2022/12/17 22:57:55;;;;;;;;;63.00;48.50;;;;;-0.70;64.80;102026.94;5012288;28;47634;-75
2022/12/17 23:00:23;;;;;;;;;62.00;50.00;;;;;-0.59;65.00;102020.56;5020090;28;45368;-75
2022/12/17 23:02:53;;;;;;;;;61.50;47.50;;;;;-0.40;64.98;102054.00;5018540;28;45345;-76
2022/12/17 23:05:20;;;;;;;;;71.25;52.25;;;;;-0.29;64.27;102066.75;5013821;28;45515;-75
2022/12/17 23:07:46;;;;;;;;;62.00;48.00;;;;;-0.23;64.20;102040.44;5016160;28;45514;-76
2022/12/17 23:10:12;;;;;;;;;65.50;50.50;;;;;-0.25;64.16;102028.31;4981416;28;45526;-76
2022/12/17 23:12:49;;;;;;;;;65.25;51.00;;;;;-0.26;64.29;102043.13;4998240;28;45456;-75
2022/12/17 23:15:27;;;;;;;;;64.25;48.75;;;;;-1.60;63.81;101823.19;4980573;28;45526;-75
2022/12/17 23:17:56;;;;;;;;;67.00;49.75;;;;;-1.88;63.98;101814.34;4997800;28;45647;-76
2022/12/17 23:20:22;;;;;;;;;69.50;54.75;;;;;-0.96;63.99;101972.81;5009905;28;45403;-77
2022/12/17 23:22:48;;;;;;;;;62.75;50.75;;;;;-1.43;64.50;101932.25;5013750;28;45404;-73
2022/12/17 23:25:14;;;;;;;;;67.75;52.25;;;;;-0.70;65.55;102031.28;4984322;28;45465;-74
2022/12/17 23:27:44;;;;;;;;;57.50;43.75;;;;;-2.41;64.70;101759.19;4997790;28;46543;-78
2022/12/17 23:30:12;;;;;;;;;67.25;53.25;;;;;-0.90;64.66;102023.13;4987357;28;45735;-76
2022/12/17 23:32:38;;;;;;;;;60.00;48.00;;;;;-1.23;65.56;101963.06;5017166;28;45222;-76
2022/12/17 23:35:04;;;;;;;;;63.75;46.50;;;;;-1.01;65.03;102011.19;5018457;28;45321;-75
2022/12/17 23:37:30;;;;;;;;;66.50;52.25;;;;;-1.57;65.45;101930.00;5008219;28;45700;-76
2022/12/17 23:39:55;;;;;;;;;74.00;55.75;;;;;-1.51;65.37;101933.34;5014001;28;45240;-75
2022/12/17 23:42:21;;;;;;;;;64.25;51.00;;;;;-1.16;65.65;101988.13;5005829;28;45304;-75
2022/12/17 23:44:46;;;;;;;;;71.25;55.25;;;;;-1.46;65.09;101928.88;4996673;28;45535;-74
2022/12/17 23:47:11;;;;;;;;;67.00;53.25;;;;;-1.46;65.05;101939.31;4984595;28;47695;-75
2022/12/17 23:49:37;;;;;;;;;72.25;54.25;;;;;-0.84;65.33;102041.22;4993019;28;47956;-76
2022/12/17 23:52:02;;;;;;;;;62.25;47.00;;;;;-1.58;65.12;101930.91;5016530;28;45365;-76
2022/12/17 23:54:28;;;;;;;;;70.50;53.50;;;;;-1.25;65.57;101980.50;4999417;28;45548;-76
2022/12/17 23:56:53;;;;;;;;;66.50;49.75;;;;;-1.13;64.79;101968.91;5016245;28;46063;-75
2022/12/17 23:59:18;;;;;;;;;66.50;47.00;;;;;-0.80;64.35;102056.81;4999998;28;45263;-73
